Time;durP1;ratioP1;P1;durP2;ratioP2;P2;SDS_P1;SDS_P2;PMS_P1;PMS_P2;Temp;Humidity;BMP_temperature;BMP_pressure;BME280_temperature;BME280_humidity;BME280_pressure;Samples;Min_cycle;Max_cycle;Signal;HPM_P1;HPM_P2
2022/10/31 00:00:56;;;;;;;3.93;2.37;;;;;;;16.11;58.41;99741.09;5072420;28;20211;-63
2022/10/31 00:03:22;;;;;;;3.73;2.53;;;;;;;16.26;57.92;99740.69;5072018;28;20269;-63
2022/10/31 00:05:50;;;;;;;3.60;2.60;;;;;;;16.42;57.48;99742.78;5071837;28;20264;-63
2022/10/31 00:08:18;;;;;;;4.10;2.83;;;;;;;16.54;56.96;99743.63;5071848;28;20245;-62
2022/10/31 00:10:46;;;;;;;4.23;2.80;;;;;;;16.53;56.73;99750.06;5071683;28;20221;-63
2022/10/31 00:13:14;;;;;;;4.73;2.57;;;;;;;16.59;56.92;99744.59;5071839;28;20215;-62
2022/10/31 00:15:42;;;;;;;5.17;2.73;;;;;;;16.62;56.52;99743.31;5071567;28;20313;-63
2022/10/31 00:18:10;;;;;;;4.80;3.20;;;;;;;16.64;56.42;99735.84;5071710;28;20192;-63
2022/10/31 00:20:37;;;;;;;2.90;2.50;;;;;;;16.68;56.28;99742.38;5071554;28;20196;-63
2022/10/31 00:23:05;;;;;;;4.03;2.30;;;;;;;16.76;56.02;99744.75;5071662;28;20250;-63
2022/10/31 00:25:35;;;;;;;6.07;2.63;;;;;;;16.75;55.96;99741.25;5071212;28;20754;-63
2022/10/31 00:28:01;;;;;;;11.80;2.63;;;;;;;16.80;55.94;99740.56;5071285;28;20192;-63
2022/10/31 00:30:28;;;;;;;10.93;2.87;;;;;;;16.77;56.12;99744.50;5071477;28;20250;-62
2022/10/31 00:32:56;;;;;;;2.80;2.40;;;;;;;16.77;55.89;99743.69;5071146;28;20203;-63
2022/10/31 00:35:23;;;;;;;4.13;2.80;;;;;;;16.87;55.78;99746.63;5070995;28;20195;-63
2022/10/31 00:37:50;;;;;;;2.93;2.63;;;;;;;16.85;55.85;99748.72;5072473;28;20670;-63
2022/10/31 00:40:16;;;;;;;4.57;2.70;;;;;;;16.84;56.14;99744.41;5074976;28;20192;-63
2022/10/31 00:42:43;;;;;;;3.07;2.77;;;;;;;16.87;56.43;99747.44;5074861;28;20204;-63
2022/10/31 00:45:11;;;;;;;2.90;2.70;;;;;;;16.98;55.76;99748.53;5075169;28;20207;-63
2022/10/31 00:47:38;;;;;;;2.97;2.77;;;;;;;17.02;55.79;99755.09;5074970;28;20245;-63
2022/10/31 00:50:07;;;;;;;4.37;2.73;;;;;;;17.26;54.83;99754.84;5074841;28;20246;-64
2022/10/31 00:52:34;;;;;;;3.87;2.53;;;;;;;17.28;54.85;99754.63;5074147;28;20703;-63
2022/10/31 00:55:00;;;;;;;3.83;2.93;;;;;;;17.34;54.45;99749.16;5074131;28;20192;-63
2022/10/31 00:57:27;;;;;;;3.27;3.00;;;;;;;17.44;54.33;99751.28;5074966;28;20203;-63
2022/10/31 00:59:54;;;;;;;3.87;2.67;;;;;;;17.52;54.06;99745.56;5074659;28;20250;-64
2022/10/31 01:02:20;;;;;;;4.93;3.00;;;;;;;17.65;53.72;99748.00;5074384;28;20196;-63
2022/10/31 01:04:47;;;;;;;6.03;2.67;;;;;;;17.77;53.12;99748.81;5074116;28;20189;-63
2022/10/31 01:07:15;;;;;;;3.83;2.53;;;;;;;17.85;52.81;99741.19;5073997;28;20192;-64
2022/10/31 01:09:42;;;;;;;3.87;2.60;;;;;;;17.81;52.70;99748.09;5074088;28;20228;-63
2022/10/31 01:12:09;;;;;;;14.93;2.90;;;;;;;17.85;52.70;99738.50;5073802;28;20281;-63
2022/10/31 01:14:36;;;;;;;2.53;2.40;;;;;;;17.84;52.80;99728.81;5073909;28;20192;-63
2022/10/31 01:17:02;;;;;;;6.03;2.60;;;;;;;17.93;52.55;99737.34;5074133;28;20192;-64
2022/10/31 01:19:29;;;;;;;3.67;2.37;;;;;;;18.05;52.01;99736.22;5073978;28;20200;-62
2022/10/31 01:21:56;;;;;;;3.70;2.23;;;;;;;18.09;52.01;99728.53;5073660;28;20257;-63
2022/10/31 01:24:24;;;;;;;3.93;2.80;;;;;;;18.19;51.50;99734.91;5074362;28;20191;-63
2022/10/31 01:26:51;;;;;;;3.53;2.50;;;;;;;18.20;51.30;99735.72;5074003;28;20226;-63
2022/10/31 01:29:18;;;;;;;6.57;2.80;;;;;;;18.22;51.28;99739.78;5064902;28;20668;-64
2022/10/31 01:31:44;;;;;;;2.50;2.30;;;;;;;18.22;51.21;99728.25;5053883;28;20226;-63
2022/10/31 01:34:14;;;;;;;2.93;2.53;;;;;;;18.24;51.14;99723.44;5053464;28;20205;-63
2022/10/31 01:36:42;;;;;;;3.40;2.20;;;;;;;18.35;50.75;99728.81;5054226;28;20250;-63
2022/10/31 01:39:11;;;;;;;2.53;2.33;;;;;;;18.29;50.92;99727.03;5053917;28;20196;-63
2022/10/31 01:41:41;;;;;;;4.67;2.17;;;;;;;18.27;50.99;99718.41;5053871;28;20197;-63
2022/10/31 01:44:41;;;;;;;4.27;2.50;;;;;;;18.35;50.81;99730.66;5053885;28;20252;-63
2022/10/31 01:47:14;;;;;;;3.37;2.13;;;;;;;18.31;50.92;99724.94;5054371;28;20190;-63
2022/10/31 01:49:45;;;;;;;6.03;2.50;;;;;;;18.43;50.65;99736.50;5053327;28;20640;-63
2022/10/31 01:52:17;;;;;;;5.47;2.93;;;;;;;18.44;50.42;99723.84;5053713;28;20214;-63
2022/10/31 01:54:50;;;;;;;5.83;2.23;;;;;;;18.46;50.25;99725.22;5054136;28;20191;-63
2022/10/31 01:57:20;;;;;;;10.20;2.80;;;;;;;18.51;50.16;99724.53;5054277;28;20217;-63
2022/10/31 01:59:49;;;;;;;9.33;2.70;;;;;;;18.64;49.69;99729.59;5053382;28;20653;-63
2022/10/31 02:02:18;;;;;;;6.40;2.97;;;;;;;18.69;49.21;99733.19;5053270;28;20670;-63
2022/10/31 02:04:45;;;;;;;11.13;2.80;;;;;;;18.68;49.24;99730.75;5053709;28;20254;-63
2022/10/31 02:07:17;;;;;;;7.17;2.57;;;;;;;18.67;49.10;99721.06;5053693;28;20197;-63
2022/10/31 02:09:45;;;;;;;5.47;2.57;;;;;;;18.74;49.02;99724.41;5052990;28;20183;-63
2022/10/31 02:12:13;;;;;;;9.53;2.43;;;;;;;18.71;49.11;99719.50;5053095;28;20235;-64
2022/10/31 02:14:41;;;;;;;3.97;2.40;;;;;;;18.75;48.78;99712.56;5053012;28;20192;-63
2022/10/31 02:17:08;;;;;;;6.33;2.87;;;;;;;18.77;48.82;99707.75;5052747;28;20198;-63
2022/10/31 02:19:41;;;;;;;5.97;3.00;;;;;;;18.90;48.30;99723.59;5053156;28;20193;-63
2022/10/31 02:22:17;;;;;;;3.30;2.20;;;;;;;18.86;48.31;99706.28;5052826;28;20624;-63
2022/10/31 02:24:59;;;;;;;7.23;2.73;;;;;;;18.68;48.89;99701.97;5052608;28;20211;-65
2022/10/31 02:28:01;;;;;;;4.40;2.63;;;;;;;18.76;48.81;99714.19;5053214;28;20247;-63
2022/10/31 02:30:36;;;;;;;3.30;2.17;;;;;;;18.77;48.58;99702.38;5071038;28;20187;-63
2022/10/31 02:33:18;;;;;;;38.90;4.43;;;;;;;18.88;48.46;99710.41;5072774;28;20213;-64
2022/10/31 02:35:56;;;;;;;6.00;2.43;;;;;;;18.95;48.06;99715.63;5073162;28;20243;-64
2022/10/31 02:38:33;;;;;;;8.50;3.00;;;;;;;18.89;48.37;99711.19;5073120;28;20190;-62
2022/10/31 02:41:05;;;;;;;7.13;2.50;;;;;;;18.99;48.29;99714.06;5072421;28;20179;-63
2022/10/31 02:43:41;;;;;;;4.83;2.50;;;;;;;18.89;48.41;99705.81;5073066;28;20248;-62
2022/10/31 02:46:14;;;;;;;10.20;2.60;;;;;;;18.94;48.18;99720.16;5072727;28;20185;-62
2022/10/31 02:48:46;;;;;;;5.67;2.40;;;;;;;18.97;47.97;99714.31;5072308;28;20194;-62
2022/10/31 02:51:13;;;;;;;11.87;2.83;;;;;;;19.05;47.82;99721.16;5072574;28;20623;-62
2022/10/31 02:53:40;;;;;;;6.43;2.73;;;;;;;19.04;47.99;99724.91;5072801;28;20246;-62
2022/10/31 02:56:12;;;;;;;2.53;2.33;;;;;;;19.10;47.58;99723.91;5072559;28;20194;-63
2022/10/31 02:58:42;;;;;;;6.30;2.70;;;;;;;19.22;47.36;99738.13;5072100;28;20686;-62
2022/10/31 03:01:33;;;;;;;9.67;3.30;;;;;;;19.16;47.39;99739.13;5071330;28;20191;-63
2022/10/31 03:04:17;;;;;;;4.47;2.43;;;;;;;19.08;47.58;99731.44;5071755;28;20575;-63
2022/10/31 03:06:50;;;;;;;17.37;2.90;;;;;;;19.14;47.60;99733.97;5072019;28;20642;-63
2022/10/31 03:09:26;;;;;;;4.77;2.60;;;;;;;19.24;47.41;99746.81;5072065;28;20190;-62
2022/10/31 03:11:59;;;;;;;2.67;2.20;;;;;;;19.23;47.71;99745.13;5072338;28;20233;-63
2022/10/31 03:14:32;;;;;;;6.97;2.57;;;;;;;19.31;47.66;99742.06;5072005;28;20186;-63
2022/10/31 03:17:02;;;;;;;5.27;2.73;;;;;;;19.36;47.17;99751.03;5071775;28;20654;-63
2022/10/31 03:19:35;;;;;;;5.90;2.50;;;;;;;19.40;47.21;99751.38;5072240;28;20218;-62
2022/10/31 03:22:07;;;;;;;6.93;2.53;;;;;;;19.42;47.13;99747.38;5072228;28;20613;-62
2022/10/31 03:24:39;;;;;;;3.13;2.13;;;;;;;19.48;46.84;99764.44;5071958;28;20238;-62
2022/10/31 03:27:10;;;;;;;3.40;2.30;;;;;;;19.44;46.89;99766.78;5071909;28;20282;-62
2022/10/31 03:29:39;;;;;;;2.63;2.43;;;;;;;19.37;47.20;99768.03;5071479;28;20695;-62
2022/10/31 03:32:11;;;;;;;2.67;2.33;;;;;;;19.48;46.66;99775.22;5072284;28;20226;-62
2022/10/31 03:34:42;;;;;;;7.77;3.17;;;;;;;19.51;46.69;99769.31;5071905;28;20606;-63
2022/10/31 03:37:15;;;;;;;9.23;3.67;;;;;;;19.48;46.74;99769.81;5071996;28;20249;-63
2022/10/31 03:39:45;;;;;;;4.73;3.03;;;;;;;19.48;46.89;99780.59;5072014;28;20192;-63
2022/10/31 03:42:15;;;;;;;8.73;2.30;;;;;;;19.55;46.90;99787.44;5071717;28;20213;-63
2022/10/31 03:44:47;;;;;;;3.50;2.93;;;;;;;19.61;46.50;99785.66;5071270;28;20213;-63
2022/10/31 03:47:14;;;;;;;6.00;2.53;;;;;;;19.59;46.61;99791.28;5071540;28;20220;-63
2022/10/31 03:49:42;;;;;;;3.70;2.70;;;;;;;19.65;46.47;99784.09;5072321;28;20627;-63
2022/10/31 03:52:20;;;;;;;4.60;2.57;;;;;;;19.70;46.37;99786.84;5070916;28;20218;-62
2022/10/31 03:54:53;;;;;;;4.50;2.27;;;;;;;19.44;47.09;99796.44;5071789;28;20245;-63
2022/10/31 03:57:26;;;;;;;10.10;3.57;;;;;;;19.44;47.01;99796.44;5071852;28;20196;-62
2022/10/31 03:59:56;;;;;;;4.37;2.53;;;;;;;19.44;47.21;99801.00;5071787;28;20195;-63
2022/10/31 04:02:29;;;;;;;8.20;2.50;;;;;;;19.46;47.24;99806.97;5071725;28;20188;-65
2022/10/31 04:04:59;;;;;;;9.43;2.93;;;;;;;19.54;46.84;99804.69;5072212;28;20615;-63
2022/10/31 04:07:31;;;;;;;2.40;2.20;;;;;;;19.47;47.11;99805.88;5071525;28;20276;-63
2022/10/31 04:10:01;;;;;;;6.67;2.93;;;;;;;19.43;47.19;99807.44;5071500;28;20253;-63
2022/10/31 04:12:30;;;;;;;4.80;2.43;;;;;;;19.40;47.32;99805.25;5073286;28;20658;-63
2022/10/31 04:14:58;;;;;;;9.37;7.07;;;;;;;19.15;48.00;99796.72;5074796;28;20656;-63
2022/10/31 04:17:30;;;;;;;4.27;2.93;;;;;;;18.96;48.78;99811.47;5075669;28;20252;-62
2022/10/31 04:20:00;;;;;;;4.23;2.70;;;;;;;19.06;48.39;99817.84;5074727;28;20243;-63
2022/10/31 04:22:26;;;;;;;2.97;2.10;;;;;;;19.22;48.00;99816.22;5074918;28;20740;-62
2022/10/31 04:24:53;;;;;;;7.57;2.50;;;;;;;19.17;48.26;99810.75;5074563;28;20188;-64
2022/10/31 04:27:20;;;;;;;8.40;3.23;;;;;;;19.04;48.49;99811.88;5074574;28;20214;-63
2022/10/31 04:29:46;;;;;;;6.17;2.93;;;;;;;19.01;48.64;99816.94;5074740;28;20202;-63
2022/10/31 04:32:13;;;;;;;4.07;2.67;;;;;;;18.87;49.06;99827.19;5075250;28;20219;-63
2022/10/31 04:34:40;;;;;;;5.57;2.60;;;;;;;18.88;49.03;99819.94;5074611;28;20196;-63
2022/10/31 04:37:08;;;;;;;5.93;2.23;;;;;;;18.78;49.39;99822.47;5074529;28;20200;-63
2022/10/31 04:39:34;;;;;;;4.97;2.50;;;;;;;18.53;50.34;99819.25;5074529;28;20188;-64
2022/10/31 04:42:01;;;;;;;4.37;2.67;;;;;;;18.45;50.55;99814.25;5074142;28;20192;-63
2022/10/31 04:44:28;;;;;;;8.03;3.03;;;;;;;18.49;50.51;99820.78;5074733;28;20555;-63
2022/10/31 04:46:54;;;;;;;3.53;3.20;;;;;;;18.50;50.31;99825.13;5073878;28;20254;-63
2022/10/31 04:49:21;;;;;;;4.47;2.80;;;;;;;18.53;50.50;99830.00;5074564;28;20212;-63
2022/10/31 04:51:48;;;;;;;5.47;3.23;;;;;;;18.52;50.43;99833.75;5074349;28;20197;-62
2022/10/31 04:54:16;;;;;;;9.30;3.00;;;;;;;18.60;50.29;99836.91;5074561;28;20273;-63
2022/10/31 04:56:42;;;;;;;6.60;3.37;;;;;;;18.53;50.60;99851.53;5073859;28;20250;-64
2022/10/31 04:59:09;;;;;;;6.50;3.10;;;;;;;18.63;50.39;99852.56;5073692;28;20567;-63
2022/10/31 05:01:36;;;;;;;7.43;3.10;;;;;;;18.66;50.29;99860.16;5073920;28;20250;-64
2022/10/31 05:04:02;;;;;;;6.40;3.00;;;;;;;18.65;50.32;99858.53;5074366;28;20195;-64
2022/10/31 05:06:29;;;;;;;8.50;2.80;;;;;;;18.73;49.86;99858.16;5073649;28;20195;-64
2022/10/31 05:08:56;;;;;;;9.83;2.77;;;;;;;18.66;50.20;99867.44;5073736;28;20186;-63
2022/10/31 05:11:24;;;;;;;25.50;4.33;;;;;;;18.59;50.69;99866.75;5073319;28;20234;-63
2022/10/31 05:13:50;;;;;;;9.70;2.87;;;;;;;18.57;50.83;99863.47;5073386;28;20219;-63
2022/10/31 05:16:17;;;;;;;13.13;3.37;;;;;;;18.62;51.07;99872.44;5073808;28;20189;-63
2022/10/31 05:18:44;;;;;;;25.83;4.33;;;;;;;18.60;51.05;99871.06;5073442;28;20192;-63
2022/10/31 05:21:10;;;;;;;11.97;3.10;;;;;;;18.61;50.80;99864.63;5073231;28;20196;-63
2022/10/31 05:23:37;;;;;;;6.07;3.07;;;;;;;18.66;50.94;99878.19;5072824;28;20254;-63
2022/10/31 05:26:04;;;;;;;7.30;2.90;;;;;;;18.55;51.16;99879.88;5073182;28;20194;-64
2022/10/31 05:28:32;;;;;;;8.53;2.97;;;;;;;18.62;51.06;99877.03;5073105;28;20616;-63
2022/10/31 05:30:58;;;;;;;7.67;3.00;;;;;;;18.71;50.90;99883.69;5073673;28;20255;-62
2022/10/31 05:33:25;;;;;;;4.20;2.97;;;;;;;18.69;51.01;99880.38;5073123;28;20313;-62
2022/10/31 05:35:52;;;;;;;10.07;2.43;;;;;;;18.74;50.88;99880.50;5073884;28;20274;-62
2022/10/31 05:38:18;;;;;;;9.90;3.10;;;;;;;18.68;51.09;99884.13;5073553;28;20196;-62
2022/10/31 05:40:45;;;;;;;4.90;3.07;;;;;;;18.74;51.12;99891.28;5073972;28;20197;-62
2022/10/31 05:43:12;;;;;;;17.37;3.70;;;;;;;18.78;51.17;99892.44;5073460;28;20198;-62
2022/10/31 05:45:41;;;;;;;7.63;3.20;;;;;;;18.81;51.10;99902.69;5073533;28;20194;-62
2022/10/31 05:48:09;;;;;;;6.47;2.83;;;;;;;18.90;51.02;99895.88;5072898;28;20268;-62
2022/10/31 05:50:35;;;;;;;14.33;3.37;;;;;;;18.84;51.13;99899.53;5073411;28;20252;-63
2022/10/31 05:53:04;;;;;;;5.47;3.60;;;;;;;18.79;51.17;99907.53;5073188;28;20220;-62
2022/10/31 05:55:32;;;;;;;3.73;2.67;;;;;;;18.81;51.62;99905.41;5072164;28;20200;-63
2022/10/31 05:57:58;;;;;;;9.50;3.20;;;;;;;18.90;51.21;99906.66;5073349;28;20199;-63
2022/10/31 06:00:26;;;;;;;9.50;2.83;;;;;;;18.96;51.17;99909.22;5072476;28;20199;-63
2022/10/31 06:03:00;;;;;;;5.33;2.90;;;;;;;18.98;51.34;99914.34;5072236;28;20636;-63
2022/10/31 06:05:27;;;;;;;8.90;3.70;;;;;;;18.98;51.36;99911.66;5072732;28;20191;-63
2022/10/31 06:07:53;;;;;;;6.03;2.77;;;;;;;19.08;50.94;99919.94;5072312;28;20207;-63
2022/10/31 06:10:21;;;;;;;11.27;3.73;;;;;;;19.19;50.66;99921.78;5071998;28;20252;-63
2022/10/31 06:12:48;;;;;;;7.97;3.30;;;;;;;19.18;50.77;99920.13;5072784;28;20225;-62
2022/10/31 06:15:15;;;;;;;19.37;3.73;;;;;;;19.25;50.42;99923.53;5072182;28;20252;-63
2022/10/31 06:17:41;;;;;;;12.83;3.33;;;;;;;19.38;50.21;99934.81;5072764;28;20202;-64
2022/10/31 06:20:10;;;;;;;11.67;3.37;;;;;;;19.35;50.56;99929.09;5072277;28;20195;-63
2022/10/31 06:22:37;;;;;;;38.93;5.83;;;;;;;19.44;50.45;99941.13;5071455;28;20192;-63
2022/10/31 06:25:04;;;;;;;12.83;3.40;;;;;;;19.45;50.26;99932.78;5071761;28;20665;-64
2022/10/31 06:27:31;;;;;;;20.23;3.57;;;;;;;19.48;50.49;99937.69;5071297;28;20676;-65
2022/10/31 06:29:58;;;;;;;14.60;5.03;;;;;;;19.58;50.27;99937.06;5071773;28;20194;-64
2022/10/31 06:32:24;;;;;;;16.67;4.27;;;;;;;19.75;49.64;99935.19;5072094;28;20196;-63
2022/10/31 06:34:51;;;;;;;8.20;2.90;;;;;;;20.01;49.23;99948.84;5071999;28;20249;-62
2022/10/31 06:37:19;;;;;;;10.67;3.77;;;;;;;20.46;48.11;99937.94;5071666;28;20187;-64
2022/10/31 06:39:46;;;;;;;21.40;3.90;;;;;;;20.99;46.47;99946.22;5071967;28;20257;-67
2022/10/31 06:42:12;;;;;;;19.30;3.43;;;;;;;21.36;45.63;99951.78;5071750;28;20577;-64
2022/10/31 06:44:39;;;;;;;12.80;3.30;;;;;;;21.84;44.80;99955.22;5071728;28;20261;-64
2022/10/31 06:47:06;;;;;;;9.43;2.50;;;;;;;22.15;43.43;99949.00;5071600;28;20196;-66
2022/10/31 06:49:33;;;;;;;8.23;2.63;;;;;;;22.44;42.54;99950.28;5070890;28;20617;-66
2022/10/31 06:51:59;;;;;;;4.70;2.40;;;;;;;22.68;41.96;99951.53;5071867;28;20253;-62
2022/10/31 06:54:27;;;;;;;16.83;3.10;;;;;;;22.99;40.83;99936.22;5067764;28;20585;-63
2022/10/31 06:56:54;;;;;;;3.47;2.63;;;;;;;23.35;40.35;99946.91;5070867;28;20606;-62
2022/10/31 06:59:21;;;;;;;8.97;2.83;;;;;;;23.58;39.80;99951.84;5070951;28;20196;-61
2022/10/31 07:01:47;;;;;;;15.73;3.17;;;;;;;23.79;38.84;99958.91;5069631;28;20262;-65
2022/10/31 07:04:14;;;;;;;15.43;3.10;;;;;;;24.01;38.49;99955.97;5068487;28;20695;-63
2022/10/31 07:06:41;;;;;;;70.27;7.40;;;;;;;24.18;37.96;99954.59;5068444;28;20278;-65
2022/10/31 07:09:07;;;;;;;30.63;4.27;;;;;;;24.22;37.83;99961.09;5067782;28;20198;-63
2022/10/31 07:11:36;;;;;;;16.63;3.10;;;;;;;24.35;37.80;99959.72;5068105;28;20768;-65
2022/10/31 07:14:02;;;;;;;21.60;4.07;;;;;;;24.17;37.53;99938.56;5067552;28;20213;-62
2022/10/31 07:16:30;;;;;;;15.73;2.97;;;;;;;24.28;37.65;99951.88;5065755;28;20199;-64
2022/10/31 07:18:57;;;;;;;5.73;2.50;;;;;;;24.47;37.19;99955.63;5068282;28;20256;-63
2022/10/31 07:21:23;;;;;;;5.53;2.90;;;;;;;24.49;36.92;99956.16;5065962;28;20286;-67
2022/10/31 07:23:50;;;;;;;7.97;2.83;;;;;;;24.38;37.17;99957.28;5061744;28;20356;-65
2022/10/31 07:26:17;;;;;;;4.87;2.50;;;;;;;24.56;37.11;99954.00;5064876;28;20260;-66
2022/10/31 07:28:46;;;;;;;12.40;3.53;;;;;;;24.75;36.71;99952.31;5064779;28;20822;-65
2022/10/31 07:31:13;;;;;;;17.50;3.67;;;;;;;24.82;36.73;99950.13;5064411;28;20199;-68
2022/10/31 07:33:40;;;;;;;9.93;2.93;;;;;;;24.72;36.76;99955.63;5062400;28;20276;-69
2022/10/31 07:36:07;;;;;;;27.43;4.27;;;;;;;24.72;36.51;99936.59;5066329;28;20751;-70
2022/10/31 07:38:34;;;;;;;5.40;2.50;;;;;;;25.00;36.44;99956.84;5071183;28;20259;-67
2022/10/31 07:41:01;;;;;;;11.13;3.20;;;;;;;24.81;36.85;99945.78;5071397;28;20674;-68
2022/10/31 07:43:27;;;;;;;10.23;3.50;;;;;;;24.83;36.29;99949.03;5069205;28;20618;-72
2022/10/31 07:45:55;;;;;;;10.10;3.27;;;;;;;24.90;36.59;99955.00;5067690;28;20202;-74
2022/10/31 07:48:22;;;;;;;6.97;3.03;;;;;;;24.65;37.05;99949.66;5075240;28;20206;-69
2022/10/31 07:50:49;;;;;;;12.40;3.30;;;;;;;24.56;37.49;99954.00;5075497;28;20240;-70
2022/10/31 07:53:17;;;;;;;9.17;3.00;;;;;;;24.50;37.22;99955.06;5076486;28;20300;-71
2022/10/31 07:55:44;;;;;;;5.20;2.90;;;;;;;24.40;37.51;99948.84;5075897;28;20199;-70
2022/10/31 07:58:12;;;;;;;10.07;2.73;;;;;;;24.67;38.47;99955.59;5074954;28;20195;-71
2022/10/31 08:00:41;;;;;;;12.63;3.33;;;;;;;24.99;36.14;99947.88;5073543;28;20257;-68
2022/10/31 08:03:10;;;;;;;23.53;3.60;;;;;;;25.08;36.46;99952.72;5073224;28;20257;-69
2022/10/31 08:05:37;;;;;;;168.03;14.27;;;;;;;25.37;36.04;99948.25;5065217;28;20203;-70
2022/10/31 08:08:05;;;;;;;12.80;2.77;;;;;;;25.52;35.64;99945.44;5070039;28;20203;-68
2022/10/31 08:10:33;;;;;;;7.23;3.13;;;;;;;25.72;35.59;99943.38;5066611;28;20580;-68
2022/10/31 08:13:01;;;;;;;9.90;3.43;;;;;;;26.10;34.63;99947.19;5073659;28;20627;-68
2022/10/31 08:15:28;;;;;;;19.93;3.00;;;;;;;26.28;34.89;99938.28;5073810;28;20192;-68
2022/10/31 08:17:55;;;;;;;11.33;3.40;;;;;;;26.70;34.09;99949.34;5075265;28;20191;-68
2022/10/31 08:20:23;;;;;;;9.07;2.63;;;;;;;27.07;32.96;99952.16;5075715;28;20192;-68
2022/10/31 08:22:57;;;;;;;29.13;4.90;;;;;;;27.09;33.27;99947.22;5075726;28;20306;-68
2022/10/31 08:25:24;;;;;;;19.27;3.37;;;;;;;27.38;32.87;99950.66;5075715;28;20185;-68
2022/10/31 08:27:52;;;;;;;8.57;2.80;;;;;;;27.56;32.05;99947.13;5075067;28;20196;-68
2022/10/31 08:30:19;;;;;;;11.50;3.37;;;;;;;27.96;32.17;99960.97;5074873;28;20194;-68
2022/10/31 08:32:47;;;;;;;22.40;3.87;;;;;;;28.16;31.08;99948.88;5075279;28;20246;-68
2022/10/31 08:35:14;;;;;;;13.13;3.37;;;;;;;28.00;30.97;99950.25;5074966;28;20265;-68
2022/10/31 08:37:42;;;;;;;17.67;3.60;;;;;;;28.19;30.75;99948.28;5074776;28;20733;-68
2022/10/31 08:40:10;;;;;;;7.80;3.17;;;;;;;28.23;30.70;99946.59;5074707;28;20567;-68
2022/10/31 08:42:37;;;;;;;12.87;3.40;;;;;;;28.35;30.30;99947.75;5074677;28;20195;-68
2022/10/31 08:45:04;;;;;;;11.60;3.10;;;;;;;28.37;30.38;99961.06;5074529;28;20253;-68
2022/10/31 08:47:31;;;;;;;12.90;3.17;;;;;;;28.50;30.54;99954.88;5074613;28;20724;-68
2022/10/31 08:49:58;;;;;;;12.93;2.70;;;;;;;28.77;30.28;99954.88;5074695;28;20192;-68
2022/10/31 08:52:26;;;;;;;12.37;3.07;;;;;;;28.80;29.68;99943.34;5074556;28;20216;-68
2022/10/31 08:54:54;;;;;;;22.33;3.97;;;;;;;29.06;30.14;99941.72;5072851;28;20212;-68
2022/10/31 08:57:20;;;;;;;27.47;4.27;;;;;;;29.28;28.53;99944.53;5073935;28;20192;-66
2022/10/31 08:59:47;;;;;;;52.33;7.33;;;;;;;29.30;29.16;99947.75;5070818;28;20250;-66
2022/10/31 09:02:14;;;;;;;6.47;3.00;;;;;;;29.27;28.93;99948.38;5074308;28;20192;-68
2022/10/31 09:04:40;;;;;;;9.27;2.50;;;;;;;29.47;28.99;99953.38;5073380;28;20230;-66
2022/10/31 09:07:07;;;;;;;14.97;3.80;;;;;;;29.58;28.78;99949.34;5074067;28;20258;-64
2022/10/31 09:09:34;;;;;;;19.60;4.00;;;;;;;29.45;28.76;99952.06;5073877;28;20200;-65
2022/10/31 09:12:02;;;;;;;6.17;2.87;;;;;;;29.23;28.36;99955.56;5074255;28;20281;-64
2022/10/31 09:14:28;;;;;;;8.80;2.73;;;;;;;29.19;29.09;99949.09;5074234;28;20250;-65
2022/10/31 09:16:55;;;;;;;11.57;3.10;;;;;;;29.22;28.99;99951.22;5073911;28;20253;-65
2022/10/31 09:19:22;;;;;;;19.50;2.90;;;;;;;29.24;29.48;99946.25;5074079;28;20196;-63
2022/10/31 09:21:48;;;;;;;46.43;5.40;;;;;;;29.24;29.93;99943.53;5073829;28;20664;-64
2022/10/31 09:24:15;;;;;;;13.50;2.70;;;;;;;29.45;31.02;99944.69;5073586;28;20695;-65
2022/10/31 09:26:42;;;;;;;6.90;2.60;;;;;;;29.39;29.65;99945.91;5071074;28;20249;-64
2022/10/31 09:29:10;;;;;;;14.60;2.50;;;;;;;28.93;29.38;99948.81;5065428;28;20192;-64
2022/10/31 09:31:37;;;;;;;9.27;3.07;;;;;;;29.00;31.13;99945.69;5061180;28;20204;-62
2022/10/31 09:34:04;;;;;;;7.23;2.73;;;;;;;29.18;29.06;99942.81;5066910;28;20219;-64
2022/10/31 09:36:30;;;;;;;6.33;2.73;;;;;;;29.01;29.51;99944.56;5066516;28;20253;-63
2022/10/31 09:38:57;;;;;;;4.23;2.67;;;;;;;28.93;29.57;99940.59;5067772;28;20619;-64
2022/10/31 09:41:31;;;;;;;14.07;3.30;;;;;;;28.78;30.18;99935.44;5068165;28;20660;-64
2022/10/31 09:44:08;;;;;;;32.23;4.17;;;;;;;28.87;29.64;99933.59;5067248;28;20230;-63
2022/10/31 09:46:43;;;;;;;9.23;2.97;;;;;;;28.79;29.74;99937.03;5064833;28;20648;-63
2022/10/31 09:49:32;;;;;;;9.30;3.20;;;;;;;28.88;30.02;99934.41;5061463;28;20188;-63
2022/10/31 09:52:04;;;;;;;4.07;2.50;;;;;;;28.92;29.04;99932.69;5062961;28;20181;-63
2022/10/31 09:54:40;;;;;;;10.60;2.97;;;;;;;28.90;29.08;99934.91;5062170;28;20205;-63
2022/10/31 09:57:11;;;;;;;10.10;2.57;;;;;;;28.92;28.78;99938.16;5062032;28;20238;-64
2022/10/31 09:59:41;;;;;;;26.97;3.67;;;;;;;28.69;28.80;99937.25;5057439;28;20242;-63
2022/10/31 10:02:17;;;;;;;8.97;2.77;;;;;;;28.41;29.11;99943.00;5052946;28;20637;-62
2022/10/31 10:04:51;;;;;;;4.53;2.63;;;;;;;28.46;29.25;99934.72;5053222;28;20671;-63
2022/10/31 10:07:27;;;;;;;9.53;2.97;;;;;;;28.47;29.93;99928.91;5053514;28;20184;-64
2022/10/31 10:09:54;;;;;;;17.57;3.63;;;;;;;28.32;29.32;99931.09;5053458;28;20180;-63
2022/10/31 10:12:32;;;;;;;3.73;2.87;;;;;;;28.24;29.57;99926.34;5053241;28;20366;-64
2022/10/31 10:15:18;;;;;;;15.83;5.13;;;;;;;28.13;29.80;99927.66;5074107;28;20265;-63
2022/10/31 10:17:54;;;;;;;8.97;2.57;;;;;;;28.09;30.25;99915.69;5073088;28;20180;-66
2022/10/31 10:20:33;;;;;;;3.17;2.30;;;;;;;28.31;30.00;99908.47;5072443;28;20188;-65
2022/10/31 10:23:25;;;;;;;7.20;2.33;;;;;;;28.21;29.93;99913.28;5073852;28;20257;-64
2022/10/31 10:25:59;;;;;;;9.57;2.33;;;;;;;28.24;29.86;99907.22;5072748;28;20200;-65
2022/10/31 10:28:29;;;;;;;5.90;2.03;;;;;;;28.41;29.56;99904.72;5073264;28;20245;-64
2022/10/31 10:31:02;;;;;;;14.83;2.70;;;;;;;28.51;29.31;99899.88;5073224;28;20192;-66
2022/10/31 10:33:34;;;;;;;7.60;2.27;;;;;;;28.56;30.00;99899.78;5073614;28;20648;-63
2022/10/31 10:36:04;;;;;;;14.93;2.63;;;;;;;28.39;29.43;99898.72;5072947;28;20641;-62
2022/10/31 10:38:38;;;;;;;3.33;2.10;;;;;;;27.98;30.52;99892.41;5072767;28;20192;-64
2022/10/31 10:41:13;;;;;;;5.33;2.00;;;;;;;28.27;29.90;99890.22;5073022;28;20188;-62
2022/10/31 10:43:40;;;;;;;5.70;2.37;;;;;;;28.54;29.95;99882.88;5073318;28;20227;-63
2022/10/31 10:49:13;;;;;;;79.77;7.07;;;;;;;28.92;29.21;99886.19;5072668;28;20187;-64
2022/10/31 10:51:45;;;;;;;3.27;1.60;;;;;;;28.79;29.40;99887.03;5072530;28;20192;-64
2022/10/31 10:54:33;;;;;;;3.23;1.90;;;;;;;28.80;29.22;99880.44;5072896;28;20654;-64
2022/10/31 10:57:11;;;;;;;3.50;2.33;;;;;;;28.89;29.13;99881.31;5072155;28;20195;-63
2022/10/31 10:59:38;;;;;;;4.70;2.00;;;;;;;29.07;29.06;99872.19;5072474;28;20619;-64
2022/10/31 11:02:18;;;;;;;7.73;2.53;;;;;;;29.29;29.11;99880.44;5072070;28;20675;-65
2022/10/31 11:04:50;;;;;;;2.57;1.90;;;;;;;29.24;28.10;99878.63;5072869;28;20200;-64
2022/10/31 11:07:17;;;;;;;10.13;1.70;;;;;;;29.27;28.91;99879.94;5071633;28;20271;-64
2022/10/31 11:09:44;;;;;;;6.27;2.07;;;;;;;29.06;29.45;99876.03;5070601;28;20250;-67
2022/10/31 11:12:18;;;;;;;12.20;2.50;;;;;;;29.07;30.46;99866.72;5066694;28;20235;-64
2022/10/31 11:14:48;;;;;;;5.93;2.07;;;;;;;29.13;29.02;99870.97;5069142;28;20265;-65
2022/10/31 11:17:26;;;;;;;10.00;2.20;;;;;;;29.16;28.60;99856.69;5072974;28;20249;-64
2022/10/31 11:20:04;;;;;;;13.40;3.00;;;;;;;29.22;28.81;99869.13;5073146;28;20610;-65
2022/10/31 11:22:31;;;;;;;7.10;2.20;;;;;;;29.19;28.14;99864.25;5071880;28;20184;-65
2022/10/31 11:24:58;;;;;;;2.90;2.10;;;;;;;29.05;28.36;99863.50;5066419;28;20344;-65
2022/10/31 11:27:26;;;;;;;3.77;2.13;;;;;;;28.92;28.31;99858.84;5069266;28;20274;-64
2022/10/31 11:29:53;;;;;;;37.67;3.47;;;;;;;28.92;28.50;99856.09;5058446;28;20661;-63
2022/10/31 11:32:22;;;;;;;19.17;3.73;;;;;;;28.74;28.67;99854.28;5051519;28;20197;-64
2022/10/31 11:34:52;;;;;;;4.50;1.80;;;;;;;28.75;29.04;99866.88;5051914;28;20216;-64
2022/10/31 11:37:24;;;;;;;3.73;1.80;;;;;;;28.64;28.50;99840.84;5051939;28;20189;-64
2022/10/31 11:39:54;;;;;;;3.73;2.10;;;;;;;28.52;28.92;99848.75;5052644;28;20258;-64
2022/10/31 11:42:23;;;;;;;4.97;2.20;;;;;;;28.49;28.91;99843.88;5051410;28;20231;-61
2022/10/31 11:44:52;;;;;;;16.40;3.03;;;;;;;28.60;29.42;99848.03;5052442;28;20584;-61